sensor_id;sensor_type;location;lat;lon;timestamp;pressure;altitude;pressure_sealevel;temperature;humidity
5651;BME280;40241;52.684;9.758;2022-08-19T00:01:20;101036.91;;;23.54;56.40
5651;BME280;40241;52.684;9.758;2022-08-19T00:03:47;101026.81;;;23.51;56.46
5651;BME280;40241;52.684;9.758;2022-08-19T00:06:13;101031.66;;;23.51;56.68
5651;BME280;40241;52.684;9.758;2022-08-19T00:08:38;101029.63;;;23.51;56.72
5651;BME280;40241;52.684;9.758;2022-08-19T00:11:05;101040.09;;;23.51;56.79
5651;BME280;40241;52.684;9.758;2022-08-19T00:13:30;101043.66;;;23.51;56.81
5651;BME280;40241;52.684;9.758;2022-08-19T00:15:56;101049.09;;;23.49;56.60
5651;BME280;40241;52.684;9.758;2022-08-19T00:18:22;101048.94;;;23.47;56.68
5651;BME280;40241;52.684;9.758;2022-08-19T00:20:47;101043.69;;;23.44;56.72
5651;BME280;40241;52.684;9.758;2022-08-19T00:23:13;101042.97;;;23.43;56.93
5651;BME280;40241;52.684;9.758;2022-08-19T00:25:38;101039.41;;;23.43;56.73
5651;BME280;40241;52.684;9.758;2022-08-19T00:28:04;101036.03;;;23.44;56.99
5651;BME280;40241;52.684;9.758;2022-08-19T00:30:30;101043.69;;;23.44;56.86
5651;BME280;40241;52.684;9.758;2022-08-19T00:32:56;101037.38;;;23.43;56.85
5651;BME280;40241;52.684;9.758;2022-08-19T00:35:22;101031.00;;;23.43;57.14
5651;BME280;40241;52.684;9.758;2022-08-19T00:37:48;101024.63;;;23.42;57.00
5651;BME280;40241;52.684;9.758;2022-08-19T00:40:15;101026.69;;;23.42;56.97
5651;BME280;40241;52.684;9.758;2022-08-19T00:42:40;101036.44;;;23.41;57.07
5651;BME280;40241;52.684;9.758;2022-08-19T00:45:14;101041.88;;;23.39;57.15
5651;BME280;40241;52.684;9.758;2022-08-19T00:47:40;101022.63;;;23.35;56.99
5651;BME280;40241;52.684;9.758;2022-08-19T00:50:08;101014.78;;;23.34;57.04
5651;BME280;40241;52.684;9.758;2022-08-19T00:52:35;101003.34;;;23.32;57.18
5651;BME280;40241;52.684;9.758;2022-08-19T00:55:05;100998.31;;;23.30;57.05
5651;BME280;40241;52.684;9.758;2022-08-19T00:57:36;101000.78;;;23.26;57.08
5651;BME280;40241;52.684;9.758;2022-08-19T01:00:06;101001.91;;;23.23;57.31
5651;BME280;40241;52.684;9.758;2022-08-19T01:02:32;100984.91;;;23.21;57.32
5651;BME280;40241;52.684;9.758;2022-08-19T01:05:00;100987.13;;;23.23;57.34
5651;BME280;40241;52.684;9.758;2022-08-19T01:07:26;100983.41;;;23.20;57.16
5651;BME280;40241;52.684;9.758;2022-08-19T01:09:52;100979.28;;;23.21;57.39
5651;BME280;40241;52.684;9.758;2022-08-19T01:12:17;100977.78;;;23.20;57.41
5651;BME280;40241;52.684;9.758;2022-08-19T01:14:44;100979.13;;;23.19;57.28
5651;BME280;40241;52.684;9.758;2022-08-19T01:17:11;100976.31;;;23.19;57.32
5651;BME280;40241;52.684;9.758;2022-08-19T01:19:39;100976.84;;;23.18;57.45
5651;BME280;40241;52.684;9.758;2022-08-19T01:24:40;100964.19;;;23.09;57.37
5651;BME280;40241;52.684;9.758;2022-08-19T01:27:06;100968.88;;;23.06;57.35
5651;BME280;40241;52.684;9.758;2022-08-19T01:29:32;100973.44;;;23.02;57.31
5651;BME280;40241;52.684;9.758;2022-08-19T01:31:58;100975.16;;;22.97;57.37
5651;BME280;40241;52.684;9.758;2022-08-19T01:34:25;100975.53;;;22.94;57.39
5651;BME280;40241;52.684;9.758;2022-08-19T01:36:50;100976.53;;;22.89;57.57
5651;BME280;40241;52.684;9.758;2022-08-19T01:39:24;100988.88;;;22.86;57.60
5651;BME280;40241;52.684;9.758;2022-08-19T01:41:50;100981.94;;;22.87;57.55
5651;BME280;40241;52.684;9.758;2022-08-19T01:44:17;100973.50;;;22.87;57.62
5651;BME280;40241;52.684;9.758;2022-08-19T01:46:47;100975.59;;;22.86;57.50
5651;BME280;40241;52.684;9.758;2022-08-19T01:49:12;100967.56;;;22.83;57.51
5651;BME280;40241;52.684;9.758;2022-08-19T01:51:38;100982.91;;;22.82;57.54
5651;BME280;40241;52.684;9.758;2022-08-19T01:54:03;100981.41;;;22.81;57.74
5651;BME280;40241;52.684;9.758;2022-08-19T01:56:29;100981.25;;;22.79;57.53
5651;BME280;40241;52.684;9.758;2022-08-19T01:59:01;100985.94;;;22.76;57.87
5651;BME280;40241;52.684;9.758;2022-08-19T02:01:27;100982.94;;;22.74;57.79
5651;BME280;40241;52.684;9.758;2022-08-19T02:03:57;100979.41;;;22.74;57.72
5651;BME280;40241;52.684;9.758;2022-08-19T02:06:22;100975.13;;;22.73;57.75
5651;BME280;40241;52.684;9.758;2022-08-19T02:08:47;100968.56;;;22.70;57.75
5651;BME280;40241;52.684;9.758;2022-08-19T02:11:23;100973.09;;;22.66;58.01
5651;BME280;40241;52.684;9.758;2022-08-19T02:13:52;100962.81;;;22.61;57.83
5651;BME280;40241;52.684;9.758;2022-08-19T02:16:19;100965.44;;;22.59;57.82
5651;BME280;40241;52.684;9.758;2022-08-19T02:18:45;100960.41;;;22.57;57.87
5651;BME280;40241;52.684;9.758;2022-08-19T02:21:15;100955.00;;;22.52;57.90
5651;BME280;40241;52.684;9.758;2022-08-19T02:23:41;100947.91;;;22.51;57.85
5651;BME280;40241;52.684;9.758;2022-08-19T02:26:07;100951.28;;;22.49;58.05
5651;BME280;40241;52.684;9.758;2022-08-19T02:28:32;100965.31;;;22.49;58.10
5651;BME280;40241;52.684;9.758;2022-08-19T02:30:58;100973.38;;;22.45;58.00
5651;BME280;40241;52.684;9.758;2022-08-19T02:33:25;100970.94;;;22.42;58.11
5651;BME280;40241;52.684;9.758;2022-08-19T02:35:51;100977.13;;;22.40;58.18
5651;BME280;40241;52.684;9.758;2022-08-19T02:38:16;100974.50;;;22.42;58.32
5651;BME280;40241;52.684;9.758;2022-08-19T02:41:03;100976.91;;;22.46;58.62
5651;BME280;40241;52.684;9.758;2022-08-19T02:43:30;100964.22;;;22.45;58.25
5651;BME280;40241;52.684;9.758;2022-08-19T02:45:57;100961.41;;;22.45;58.41
5651;BME280;40241;52.684;9.758;2022-08-19T02:48:24;100964.78;;;22.43;58.25
5651;BME280;40241;52.684;9.758;2022-08-19T02:50:52;100965.50;;;22.44;58.40
5651;BME280;40241;52.684;9.758;2022-08-19T02:53:21;100964.03;;;22.43;58.34
5651;BME280;40241;52.684;9.758;2022-08-19T02:55:47;100952.06;;;22.42;58.45
5651;BME280;40241;52.684;9.758;2022-08-19T02:58:14;100968.13;;;22.42;58.27
5651;BME280;40241;52.684;9.758;2022-08-19T03:00:49;100959.38;;;22.37;58.65
5651;BME280;40241;52.684;9.758;2022-08-19T03:03:16;100963.31;;;22.34;58.39
5651;BME280;40241;52.684;9.758;2022-08-19T03:05:42;100961.66;;;22.31;58.47
5651;BME280;40241;52.684;9.758;2022-08-19T03:08:08;100958.09;;;22.31;58.62
5651;BME280;40241;52.684;9.758;2022-08-19T03:10:45;100951.72;;;22.30;58.71
5651;BME280;40241;52.684;9.758;2022-08-19T03:13:16;100947.47;;;22.29;58.69
5651;BME280;40241;52.684;9.758;2022-08-19T03:15:44;100951.38;;;22.26;58.56
5651;BME280;40241;52.684;9.758;2022-08-19T03:18:10;100956.63;;;22.22;58.54
5651;BME280;40241;52.684;9.758;2022-08-19T03:20:50;100959.66;;;22.17;58.99
5651;BME280;40241;52.684;9.758;2022-08-19T03:23:16;100954.78;;;22.17;58.71
5651;BME280;40241;52.684;9.758;2022-08-19T03:25:45;100952.56;;;22.16;58.71
5651;BME280;40241;52.684;9.758;2022-08-19T03:28:12;100955.94;;;22.14;58.85
5651;BME280;40241;52.684;9.758;2022-08-19T03:30:39;100950.16;;;22.12;58.86
5651;BME280;40241;52.684;9.758;2022-08-19T03:33:07;100947.16;;;22.10;58.95
5651;BME280;40241;52.684;9.758;2022-08-19T03:35:32;100949.38;;;22.12;58.94
5651;BME280;40241;52.684;9.758;2022-08-19T03:37:59;100955.00;;;22.12;59.03
5651;BME280;40241;52.684;9.758;2022-08-19T03:40:24;100955.00;;;22.12;58.89
5651;BME280;40241;52.684;9.758;2022-08-19T03:42:50;100968.84;;;22.10;58.88
5651;BME280;40241;52.684;9.758;2022-08-19T03:45:16;100963.06;;;22.08;58.96
5651;BME280;40241;52.684;9.758;2022-08-19T03:47:41;100961.19;;;22.10;59.04
5651;BME280;40241;52.684;9.758;2022-08-19T03:50:06;100956.28;;;22.11;59.05
5651;BME280;40241;52.684;9.758;2022-08-19T03:52:33;100958.56;;;22.12;59.07
5651;BME280;40241;52.684;9.758;2022-08-19T03:54:59;100969.75;;;22.12;59.07
5651;BME280;40241;52.684;9.758;2022-08-19T03:57:24;100968.44;;;22.13;59.06
5651;BME280;40241;52.684;9.758;2022-08-19T03:59:49;100968.44;;;22.13;59.23
5651;BME280;40241;52.684;9.758;2022-08-19T04:02:15;100971.25;;;22.13;58.99
5651;BME280;40241;52.684;9.758;2022-08-19T04:04:42;100977.78;;;22.16;59.02
5651;BME280;40241;52.684;9.758;2022-08-19T04:07:09;100981.31;;;22.16;59.12
5651;BME280;40241;52.684;9.758;2022-08-19T04:09:35;100986.75;;;22.14;59.02
5651;BME280;40241;52.684;9.758;2022-08-19T04:12:02;100971.25;;;22.13;59.05
5651;BME280;40241;52.684;9.758;2022-08-19T04:14:29;100968.25;;;22.11;59.11
5651;BME280;40241;52.684;9.758;2022-08-19T04:16:55;100975.38;;;22.12;59.11
5651;BME280;40241;52.684;9.758;2022-08-19T04:19:21;100976.84;;;22.13;59.17
5651;BME280;40241;52.684;9.758;2022-08-19T04:21:50;100979.06;;;22.15;59.17
5651;BME280;40241;52.684;9.758;2022-08-19T04:24:16;100981.31;;;22.16;59.11
5651;BME280;40241;52.684;9.758;2022-08-19T04:26:42;100988.41;;;22.17;59.15
5651;BME280;40241;52.684;9.758;2022-08-19T04:29:13;100980.75;;;22.18;59.32
5651;BME280;40241;52.684;9.758;2022-08-19T04:31:40;100973.84;;;22.19;59.19
5651;BME280;40241;52.684;9.758;2022-08-19T04:34:09;100981.69;;;22.20;59.21
5651;BME280;40241;52.684;9.758;2022-08-19T04:36:41;100985.78;;;22.19;59.12
5651;BME280;40241;52.684;9.758;2022-08-19T04:39:13;100989.53;;;22.22;59.39
5651;BME280;40241;52.684;9.758;2022-08-19T04:41:38;100985.25;;;22.21;59.19
5651;BME280;40241;52.684;9.758;2022-08-19T04:44:22;100988.03;;;22.21;59.14
5651;BME280;40241;52.684;9.758;2022-08-19T04:46:49;100994.38;;;22.21;59.24
5651;BME280;40241;52.684;9.758;2022-08-19T04:49:16;100996.63;;;22.23;59.29
5651;BME280;40241;52.684;9.758;2022-08-19T04:51:45;101001.50;;;22.22;59.04
5651;BME280;40241;52.684;9.758;2022-08-19T04:54:11;101007.84;;;22.23;59.14
5651;BME280;40241;52.684;9.758;2022-08-19T04:56:38;100998.69;;;22.22;59.07
5651;BME280;40241;52.684;9.758;2022-08-19T04:59:04;101000.72;;;22.22;59.18
5651;BME280;40241;52.684;9.758;2022-08-19T05:01:31;100997.56;;;22.25;59.25
5651;BME280;40241;52.684;9.758;2022-08-19T05:03:59;101001.84;;;22.26;59.18
5651;BME280;40241;52.684;9.758;2022-08-19T05:06:26;101008.94;;;22.27;59.09
5651;BME280;40241;52.684;9.758;2022-08-19T05:08:53;101017.53;;;22.29;59.04
5651;BME280;40241;52.684;9.758;2022-08-19T05:11:23;101020.53;;;22.31;59.24
5651;BME280;40241;52.684;9.758;2022-08-19T05:13:49;101020.53;;;22.31;59.17
5651;BME280;40241;52.684;9.758;2022-08-19T05:16:16;101012.28;;;22.33;59.22
5651;BME280;40241;52.684;9.758;2022-08-19T05:18:43;101014.50;;;22.35;58.98
5651;BME280;40241;52.684;9.758;2022-08-19T05:21:28;101013.75;;;22.34;59.04
5651;BME280;40241;52.684;9.758;2022-08-19T05:24:13;101001.06;;;22.33;59.14
5651;BME280;40241;52.684;9.758;2022-08-19T05:26:40;101002.00;;;22.36;58.99
5651;BME280;40241;52.684;9.758;2022-08-19T05:29:07;100995.66;;;22.35;59.06
5651;BME280;40241;52.684;9.758;2022-08-19T05:31:34;100998.44;;;22.35;58.98
5651;BME280;40241;52.684;9.758;2022-08-19T05:34:00;101002.00;;;22.36;59.00
5651;BME280;40241;52.684;9.758;2022-08-19T05:36:28;101001.44;;;22.37;59.03
5651;BME280;40241;52.684;9.758;2022-08-19T05:38:53;101008.53;;;22.38;58.99
5651;BME280;40241;52.684;9.758;2022-08-19T05:41:19;101010.59;;;22.38;58.97
5651;BME280;40241;52.684;9.758;2022-08-19T05:43:46;101009.25;;;22.39;58.91
5651;BME280;40241;52.684;9.758;2022-08-19T05:46:18;101005.91;;;22.41;59.00
5651;BME280;40241;52.684;9.758;2022-08-19T05:48:44;100999.56;;;22.40;59.00
5651;BME280;40241;52.684;9.758;2022-08-19T05:51:10;100996.16;;;22.42;58.94
5651;BME280;40241;52.684;9.758;2022-08-19T05:53:36;101002.53;;;22.42;58.86
5651;BME280;40241;52.684;9.758;2022-08-19T05:56:06;100999.31;;;22.46;59.01
5651;BME280;40241;52.684;9.758;2022-08-19T05:58:33;100984.59;;;22.45;59.03
5651;BME280;40241;52.684;9.758;2022-08-19T06:00:58;100995.41;;;22.49;59.05
5651;BME280;40241;52.684;9.758;2022-08-19T06:03:30;100992.78;;;22.51;59.04
5651;BME280;40241;52.684;9.758;2022-08-19T06:05:55;100995.94;;;22.55;58.94
5651;BME280;40241;52.684;9.758;2022-08-19T06:08:21;101000.63;;;22.52;59.01
5651;BME280;40241;52.684;9.758;2022-08-19T06:10:46;101001.72;;;22.57;58.83
5651;BME280;40241;52.684;9.758;2022-08-19T06:13:11;100995.00;;;22.60;58.79
5651;BME280;40241;52.684;9.758;2022-08-19T06:15:37;101001.53;;;22.62;58.69
5651;BME280;40241;52.684;9.758;2022-08-19T06:18:02;101001.91;;;22.66;58.67
5651;BME280;40241;52.684;9.758;2022-08-19T06:20:28;101011.22;;;22.69;58.59
5651;BME280;40241;52.684;9.758;2022-08-19T06:22:54;101008.94;;;22.75;58.61
5651;BME280;40241;52.684;9.758;2022-08-19T06:25:20;101011.94;;;22.77;58.38
5651;BME280;40241;52.684;9.758;2022-08-19T06:27:46;101017.38;;;22.75;58.42
5651;BME280;40241;52.684;9.758;2022-08-19T06:30:11;101017.38;;;22.75;58.42
5651;BME280;40241;52.684;9.758;2022-08-19T06:32:37;101029.88;;;22.74;58.41
5651;BME280;40241;52.684;9.758;2022-08-19T06:35:03;101020.53;;;22.79;58.43
5651;BME280;40241;52.684;9.758;2022-08-19T06:37:29;101022.19;;;22.82;58.46
5651;BME280;40241;52.684;9.758;2022-08-19T06:39:55;101021.03;;;22.85;58.26
5651;BME280;40241;52.684;9.758;2022-08-19T06:42:20;101032.31;;;22.77;58.15
5651;BME280;40241;52.684;9.758;2022-08-19T06:44:47;101027.09;;;22.74;58.30
5651;BME280;40241;52.684;9.758;2022-08-19T06:47:19;101041.13;;;22.74;57.98
5651;BME280;40241;52.684;9.758;2022-08-19T06:49:45;101026.19;;;22.71;58.18
5651;BME280;40241;52.684;9.758;2022-08-19T06:52:10;101038.88;;;22.72;58.12
5651;BME280;40241;52.684;9.758;2022-08-19T06:54:37;101035.16;;;22.70;58.05
5651;BME280;40241;52.684;9.758;2022-08-19T06:57:04;101041.75;;;22.65;58.05
5651;BME280;40241;52.684;9.758;2022-08-19T06:59:31;101047.34;;;22.65;58.10
5651;BME280;40241;52.684;9.758;2022-08-19T07:01:59;101049.59;;;22.66;58.05
5651;BME280;40241;52.684;9.758;2022-08-19T07:04:28;101049.75;;;22.68;58.16
5651;BME280;40241;52.684;9.758;2022-08-19T07:07:14;101043.41;;;22.68;57.97
5651;BME280;40241;52.684;9.758;2022-08-19T07:09:42;101058.16;;;22.68;58.13
5651;BME280;40241;52.684;9.758;2022-08-19T07:12:11;101052.75;;;22.70;58.10
5651;BME280;40241;52.684;9.758;2022-08-19T07:14:39;101057.78;;;22.72;58.11
5651;BME280;40241;52.684;9.758;2022-08-19T07:17:07;101064.13;;;22.72;58.04
5651;BME280;40241;52.684;9.758;2022-08-19T07:19:33;101063.00;;;22.75;58.04
5651;BME280;40241;52.684;9.758;2022-08-19T07:22:01;101066.75;;;22.78;58.20
5651;BME280;40241;52.684;9.758;2022-08-19T07:24:28;101071.03;;;22.79;57.88
5651;BME280;40241;52.684;9.758;2022-08-19T07:26:56;101068.56;;;22.83;58.21
5651;BME280;40241;52.684;9.758;2022-08-19T07:29:24;101075.28;;;22.87;58.04
5651;BME280;40241;52.684;9.758;2022-08-19T07:31:51;101078.84;;;22.88;58.07
5651;BME280;40241;52.684;9.758;2022-08-19T07:34:17;101088.75;;;22.89;57.83
5651;BME280;40241;52.684;9.758;2022-08-19T07:36:44;101089.66;;;22.91;57.92
5651;BME280;40241;52.684;9.758;2022-08-19T07:39:15;101092.09;;;22.95;57.71
5651;BME280;40241;52.684;9.758;2022-08-19T07:41:41;101097.72;;;22.95;57.65
5651;BME280;40241;52.684;9.758;2022-08-19T07:44:07;101096.97;;;22.94;57.68
5651;BME280;40241;52.684;9.758;2022-08-19T07:46:34;101098.25;;;22.93;57.74
5651;BME280;40241;52.684;9.758;2022-08-19T07:49:01;101101.28;;;22.95;57.63
5651;BME280;40241;52.684;9.758;2022-08-19T07:51:28;101099.53;;;23.00;57.68
5651;BME280;40241;52.684;9.758;2022-08-19T07:53:54;101108.88;;;23.02;57.41
5651;BME280;40241;52.684;9.758;2022-08-19T07:56:21;101103.63;;;23.06;57.61
5651;BME280;40241;52.684;9.758;2022-08-19T07:58:49;101101.75;;;23.09;57.56
5651;BME280;40241;52.684;9.758;2022-08-19T08:01:25;101105.09;;;23.15;57.24
5651;BME280;40241;52.684;9.758;2022-08-19T08:03:52;101113.28;;;23.21;57.34
5651;BME280;40241;52.684;9.758;2022-08-19T08:06:37;101114.41;;;23.25;57.39
5651;BME280;40241;52.684;9.758;2022-08-19T08:09:27;101111.56;;;23.33;57.30
5651;BME280;40241;52.684;9.758;2022-08-19T08:11:57;101111.94;;;23.37;57.19
5651;BME280;40241;52.684;9.758;2022-08-19T08:14:35;101108.13;;;23.42;57.23
5651;BME280;40241;52.684;9.758;2022-08-19T08:17:02;101104.19;;;23.45;57.30
5651;BME280;40241;52.684;9.758;2022-08-19T08:19:28;101106.03;;;23.50;57.08
5651;BME280;40241;52.684;9.758;2022-08-19T08:21:55;101103.56;;;23.54;56.90
5651;BME280;40241;52.684;9.758;2022-08-19T08:24:21;101107.47;;;23.58;56.97
5651;BME280;40241;52.684;9.758;2022-08-19T08:26:47;101117.72;;;23.63;56.81
5651;BME280;40241;52.684;9.758;2022-08-19T08:29:13;101123.13;;;23.69;56.71
5651;BME280;40241;52.684;9.758;2022-08-19T08:31:42;101119.50;;;23.76;56.52
5651;BME280;40241;52.684;9.758;2022-08-19T08:34:09;101115.16;;;23.82;56.31
5651;BME280;40241;52.684;9.758;2022-08-19T08:36:39;101116.63;;;23.83;56.33
5651;BME280;40241;52.684;9.758;2022-08-19T08:39:07;101113.19;;;23.93;56.36
5651;BME280;40241;52.684;9.758;2022-08-19T08:44:22;101122.59;;;24.12;55.85
5651;BME280;40241;52.684;9.758;2022-08-19T08:46:53;101123.44;;;24.22;55.68
5651;BME280;40241;52.684;9.758;2022-08-19T08:52:07;101116.94;;;24.37;55.40
5651;BME280;40241;52.684;9.758;2022-08-19T08:54:46;101117.00;;;24.46;54.60
5651;BME280;40241;52.684;9.758;2022-08-19T08:57:23;101120.00;;;24.48;54.80
5651;BME280;40241;52.684;9.758;2022-08-19T08:59:52;101120.56;;;24.47;55.18
5651;BME280;40241;52.684;9.758;2022-08-19T09:02:19;101124.38;;;24.59;55.19
5651;BME280;40241;52.684;9.758;2022-08-19T09:04:45;101111.63;;;24.75;55.05
5651;BME280;40241;52.684;9.758;2022-08-19T09:10:20;101113.91;;;25.03;54.42
5651;BME280;40241;52.684;9.758;2022-08-19T09:15:58;101110.56;;;25.14;53.46
5651;BME280;40241;52.684;9.758;2022-08-19T09:18:26;101113.22;;;25.12;54.14
5651;BME280;40241;52.684;9.758;2022-08-19T09:21:03;101109.66;;;25.12;53.97
5651;BME280;40241;52.684;9.758;2022-08-19T09:23:28;101121.25;;;25.16;53.92
5651;BME280;40241;52.684;9.758;2022-08-19T09:25:53;101119.31;;;25.18;53.69
5651;BME280;40241;52.684;9.758;2022-08-19T09:28:19;101115.63;;;25.16;54.03
5651;BME280;40241;52.684;9.758;2022-08-19T09:30:44;101111.78;;;25.21;53.69
5651;BME280;40241;52.684;9.758;2022-08-19T09:33:09;101123.81;;;25.21;53.62
5651;BME280;40241;52.684;9.758;2022-08-19T09:35:35;101119.97;;;25.26;53.44
5651;BME280;40241;52.684;9.758;2022-08-19T09:38:00;101125.94;;;25.30;53.42
5651;BME280;40241;52.684;9.758;2022-08-19T09:40:27;101126.09;;;25.33;53.30
5651;BME280;40241;52.684;9.758;2022-08-19T09:42:53;101127.59;;;25.34;53.08
5651;BME280;40241;52.684;9.758;2022-08-19T09:45:21;101116.63;;;25.38;53.22
5651;BME280;40241;52.684;9.758;2022-08-19T09:47:47;101115.28;;;25.39;52.95
5651;BME280;40241;52.684;9.758;2022-08-19T09:50:13;101118.44;;;25.43;52.79
5651;BME280;40241;52.684;9.758;2022-08-19T09:52:39;101119.78;;;25.42;52.81
5651;BME280;40241;52.684;9.758;2022-08-19T09:55:08;101120.34;;;25.40;52.61
5651;BME280;40241;52.684;9.758;2022-08-19T09:57:35;101119.44;;;25.38;52.62
5651;BME280;40241;52.684;9.758;2022-08-19T10:00:01;101120.94;;;25.39;52.69
5651;BME280;40241;52.684;9.758;2022-08-19T10:02:26;101123.53;;;25.44;52.64
5651;BME280;40241;52.684;9.758;2022-08-19T10:04:52;101125.75;;;25.46;52.92
5651;BME280;40241;52.684;9.758;2022-08-19T10:07:36;101114.78;;;25.50;52.29
5651;BME280;40241;52.684;9.758;2022-08-19T10:10:04;101116.59;;;25.55;52.30
5651;BME280;40241;52.684;9.758;2022-08-19T10:12:30;101157.69;;;25.58;52.11
5651;BME280;40241;52.684;9.758;2022-08-19T10:14:56;101110.97;;;25.64;52.22
5651;BME280;40241;52.684;9.758;2022-08-19T10:17:21;101114.59;;;25.74;52.17
5651;BME280;40241;52.684;9.758;2022-08-19T10:19:46;101117.28;;;25.82;52.00
5651;BME280;40241;52.684;9.758;2022-08-19T10:22:12;101116.84;;;25.85;52.20
5651;BME280;40241;52.684;9.758;2022-08-19T10:24:38;101164.63;;;25.83;52.12
5651;BME280;40241;52.684;9.758;2022-08-19T10:27:04;101119.06;;;25.87;51.85
5651;BME280;40241;52.684;9.758;2022-08-19T10:29:31;101122.06;;;25.89;51.93
5651;BME280;40241;52.684;9.758;2022-08-19T10:32:00;101107.38;;;25.90;51.55
5651;BME280;40241;52.684;9.758;2022-08-19T10:34:27;101115.09;;;25.90;51.53
5651;BME280;40241;52.684;9.758;2022-08-19T10:36:53;101122.06;;;25.89;51.37
5651;BME280;40241;52.684;9.758;2022-08-19T10:39:18;101113.88;;;25.83;51.06
5651;BME280;40241;52.684;9.758;2022-08-19T10:41:44;101114.16;;;25.78;51.39
5651;BME280;40241;52.684;9.758;2022-08-19T10:44:11;101106.19;;;25.84;51.51
5651;BME280;40241;52.684;9.758;2022-08-19T10:46:39;101099.78;;;25.93;51.54
5651;BME280;40241;52.684;9.758;2022-08-19T10:49:07;101104.88;;;26.04;51.44
5651;BME280;40241;52.684;9.758;2022-08-19T10:51:33;101093.75;;;26.06;50.95
5651;BME280;40241;52.684;9.758;2022-08-19T10:54:18;101095.34;;;25.99;50.90
5651;BME280;40241;52.684;9.758;2022-08-19T10:56:44;101095.72;;;26.13;51.10
5651;BME280;40241;52.684;9.758;2022-08-19T10:59:26;101093.22;;;26.36;50.67
5651;BME280;40241;52.684;9.758;2022-08-19T11:01:54;101084.63;;;26.53;50.73
5651;BME280;40241;52.684;9.758;2022-08-19T11:04:20;101085.38;;;26.73;50.33
5651;BME280;40241;52.684;9.758;2022-08-19T11:06:48;101084.16;;;26.86;49.90
5651;BME280;40241;52.684;9.758;2022-08-19T11:09:15;101075.81;;;26.88;49.73
5651;BME280;40241;52.684;9.758;2022-08-19T11:11:42;101074.38;;;26.77;49.72
5651;BME280;40241;52.684;9.758;2022-08-19T11:14:09;101070.47;;;26.72;50.10
5651;BME280;40241;52.684;9.758;2022-08-19T11:16:35;101078.38;;;26.74;50.03
5651;BME280;40241;52.684;9.758;2022-08-19T11:19:02;101074.03;;;26.83;49.90
5651;BME280;40241;52.684;9.758;2022-08-19T11:21:31;101066.31;;;26.83;49.67
5651;BME280;40241;52.684;9.758;2022-08-19T11:23:58;101066.31;;;26.73;49.65
5651;BME280;40241;52.684;9.758;2022-08-19T11:26:24;101068.84;;;26.69;49.81
5651;BME280;40241;52.684;9.758;2022-08-19T11:28:50;101066.19;;;26.81;49.51
5651;BME280;40241;52.684;9.758;2022-08-19T11:31:20;101060.66;;;26.93;49.41
5651;BME280;40241;52.684;9.758;2022-08-19T11:33:46;101057.63;;;27.10;49.41
5651;BME280;40241;52.684;9.758;2022-08-19T11:36:16;101058.34;;;27.20;49.28
5651;BME280;40241;52.684;9.758;2022-08-19T11:38:41;101064.44;;;27.26;49.25
5651;BME280;40241;52.684;9.758;2022-08-19T11:41:07;101056.78;;;27.48;48.88
5651;BME280;40241;52.684;9.758;2022-08-19T11:43:33;101054.78;;;27.60;48.86
5651;BME280;40241;52.684;9.758;2022-08-19T11:45:59;101051.28;;;27.71;48.46
5651;BME280;40241;52.684;9.758;2022-08-19T11:48:28;101054.25;;;27.73;48.48
5651;BME280;40241;52.684;9.758;2022-08-19T11:50:53;101047.19;;;27.83;48.25
5651;BME280;40241;52.684;9.758;2022-08-19T11:53:22;101042.09;;;27.91;47.90
5651;BME280;40241;52.684;9.758;2022-08-19T11:55:48;101039.31;;;27.82;47.90
5651;BME280;40241;52.684;9.758;2022-08-19T11:58:16;101036.88;;;27.97;48.18
5651;BME280;40241;52.684;9.758;2022-08-19T12:00:43;101042.50;;;28.18;47.91
5651;BME280;40241;52.684;9.758;2022-08-19T12:03:11;101036.69;;;28.38;47.31
5651;BME280;40241;52.684;9.758;2022-08-19T12:05:38;101041.06;;;28.50;46.97
5651;BME280;40241;52.684;9.758;2022-08-19T12:08:04;101050.28;;;28.51;47.21
5651;BME280;40241;52.684;9.758;2022-08-19T12:10:30;101046.91;;;28.64;46.83
5651;BME280;40241;52.684;9.758;2022-08-19T12:12:55;101051.84;;;28.63;46.59
5651;BME280;40241;52.684;9.758;2022-08-19T12:15:21;101051.28;;;28.55;46.12
5651;BME280;40241;52.684;9.758;2022-08-19T12:17:46;101040.53;;;28.75;46.41
5651;BME280;40241;52.684;9.758;2022-08-19T12:20:12;101035.16;;;29.02;46.50
5651;BME280;40241;52.684;9.758;2022-08-19T12:22:40;101037.06;;;29.32;46.19
5651;BME280;40241;52.684;9.758;2022-08-19T12:25:10;101035.47;;;29.52;45.35
5651;BME280;40241;52.684;9.758;2022-08-19T12:27:36;101036.41;;;29.68;45.64
5651;BME280;40241;52.684;9.758;2022-08-19T12:30:03;101038.03;;;29.83;45.23
5651;BME280;40241;52.684;9.758;2022-08-19T12:32:28;101034.91;;;29.91;44.84
5651;BME280;40241;52.684;9.758;2022-08-19T12:34:54;101030.44;;;29.99;44.62
5651;BME280;40241;52.684;9.758;2022-08-19T12:37:19;101041.16;;;30.12;44.73
5651;BME280;40241;52.684;9.758;2022-08-19T12:39:44;101030.38;;;30.22;44.77
5651;BME280;40241;52.684;9.758;2022-08-19T12:42:12;101019.03;;;30.22;44.15
5651;BME280;40241;52.684;9.758;2022-08-19T12:44:39;101008.44;;;30.23;44.18
5651;BME280;40241;52.684;9.758;2022-08-19T12:47:05;101012.72;;;29.99;43.60
5651;BME280;40241;52.684;9.758;2022-08-19T12:49:31;101021.25;;;29.87;44.04
5651;BME280;40241;52.684;9.758;2022-08-19T12:52:00;101028.03;;;29.82;44.38
5651;BME280;40241;52.684;9.758;2022-08-19T12:54:26;101018.41;;;29.87;44.31
5651;BME280;40241;52.684;9.758;2022-08-19T12:56:51;101024.78;;;29.99;44.49
5651;BME280;40241;52.684;9.758;2022-08-19T12:59:17;101010.66;;;30.13;44.20
5651;BME280;40241;52.684;9.758;2022-08-19T13:01:44;101020.06;;;30.04;44.14
5651;BME280;40241;52.684;9.758;2022-08-19T13:04:10;101023.56;;;29.91;44.42
5651;BME280;40241;52.684;9.758;2022-08-19T13:06:36;101012.59;;;29.97;44.32
5651;BME280;40241;52.684;9.758;2022-08-19T13:09:03;101031.31;;;30.02;43.74
5651;BME280;40241;52.684;9.758;2022-08-19T13:11:28;101023.16;;;30.08;43.93
5651;BME280;40241;52.684;9.758;2022-08-19T13:13:58;101017.94;;;30.16;43.78
5651;BME280;40241;52.684;9.758;2022-08-19T13:16:23;101023.41;;;30.12;43.47